SBPB/PHB METAR and TAF weather

Enter ICAO airport designator
Station Type Date Time Source
SBPB METAR 2019/08/24 21:45 UTC NOAA

SBPB 242145Z 08016KT CAVOK 27/23 Q1014


Station Type Date Time Source
SBPB Decoded METAR 2019/08/24 21:45 UTC NOAA

Station name not available
Aug 24, 2019 - 05:45 PM EDT / 2019.08.24 2145 UTC
Wind: from the E (080 degrees) at 18 MPH (16 KT):0
Visibility: greater than 7 mile(s):0
Temperature: 80 F (27 C)
Dew Point: 73 F (23 C)
Relative Humidity: 78%
Pressure (altimeter): 29.94 in. Hg (1014 hPa)
ob: SBPB 242145Z 08016KT CAVOK 27/23 Q1014
cycle: 22

Station Type Date Time Source
SBPB TAF 2019/08/25 06:18 UTC NOAA

TAF SBPB 250400Z 2506/2518 08015KT 9999 SCT020 TN24/2511Z TX34/2517Z
BECMG 2513/2515 06010KT FEW020
BECMG 2516/2518 08015KT
RMK PEN

Example: see airport list